Time;durP1;ratioP1;P1;durP2;ratioP2;P2;SDS_P1;SDS_P2;PMS_P1;PMS_P2;Temp;Humidity;BMP_temperature;BMP_pressure;BME280_temperature;BME280_humidity;BME280_pressure;Samples;Min_cycle;Max_cycle;Signal;HPM_P1;HPM_P2
2022/03/18 00:00:29;;;;;;;0.32;0.32;;;;;;;;;;5056033;28;20017;-85
2022/03/18 00:02:55;;;;;;;0.10;0.10;;;;;;;;;;5027202;28;20043;-84
2022/03/18 00:05:24;;;;;;;0.32;0.32;;;;;;;;;;5050540;28;20100;-84
2022/03/18 00:07:56;;;;;;;0.00;0.00;;;;;;;;;;5046962;28;20032;-82
2022/03/18 00:10:21;;;;;;;0.03;0.03;;;;;;;;;;5039022;28;20057;-86
2022/03/18 00:12:55;;;;;;;0.20;0.20;;;;;;;;;;5054915;28;20501;-81
2022/03/18 00:15:24;;;;;;;3.45;2.95;;;;;;;;;;5045986;28;20192;-84
2022/03/18 00:17:56;;;;;;;1.73;1.63;;;;;;;;;;5059817;28;20411;-83
2022/03/18 00:20:22;;;;;;;1.60;1.40;;;;;;;;;;5052440;28;20049;-81
2022/03/18 00:22:48;;;;;;;1.65;0.93;;;;;;;;;;5055322;28;20033;-84
2022/03/18 00:25:17;;;;;;;0.43;0.43;;;;;;;;;;5055499;28;20041;-83
2022/03/18 00:27:43;;;;;;;0.63;0.63;;;;;;;;;;5054405;28;20397;-85
2022/03/18 00:30:16;;;;;;;1.05;0.63;;;;;;;;;;5038933;28;20033;-85
2022/03/18 00:32:42;;;;;;;;;;;;;;;;;;5056605;28;20078;-84
2022/03/18 00:35:08;;;;;;;0.60;0.25;;;;;;;;;;5057942;28;19916;-84
2022/03/18 00:37:35;;;;;;;0.00;0.00;;;;;;;;;;5054472;28;20031;-84
2022/03/18 00:40:03;;;;;;;0.08;0.08;;;;;;;;;;5072329;28;20028;-84
2022/03/18 00:42:33;;;;;;;0.40;0.40;;;;;;;;;;5038088;28;20081;-82
2022/03/18 00:44:59;;;;;;;0.30;0.30;;;;;;;;;;5054051;28;20029;-83
2022/03/18 00:53:03;;;;;;;0.20;0.20;;;;;;;;;;5055080;28;20036;-84
2022/03/18 00:55:28;;;;;;;0.45;0.45;;;;;;;;;;5062134;28;20469;-84
2022/03/18 00:57:55;;;;;;;0.57;0.57;;;;;;;;;;5047868;28;20024;-84
2022/03/18 01:00:21;;;;;;;0.17;0.17;;;;;;;;;;5055129;28;20462;-84
2022/03/18 01:02:46;;;;;;;0.55;0.55;;;;;;;;;;5054515;28;20048;-83
2022/03/18 01:05:11;;;;;;;0.10;0.10;;;;;;;;;;5055243;28;20028;-81
2022/03/18 01:07:39;;;;;;;0.52;0.52;;;;;;;;;;5055439;28;20082;-84
2022/03/18 01:10:07;;;;;;;0.15;0.15;;;;;;;;;;5056538;28;20435;-83
2022/03/18 01:12:35;;;;;;;0.00;0.00;;;;;;;;;;5039041;28;20409;-84
2022/03/18 01:15:03;;;;;;;0.00;0.00;;;;;;;;;;5056179;28;20037;-84
2022/03/18 01:17:32;;;;;;;0.15;0.15;;;;;;;;;;5055327;28;20108;-84
2022/03/18 01:19:58;;;;;;;0.70;0.47;;;;;;;;;;5055428;28;20021;-83
2022/03/18 01:22:30;;;;;;;0.00;0.00;;;;;;;;;;5039008;28;20029;-82
2022/03/18 01:24:56;;;;;;;;;;;;;;;;;;5055226;28;20041;-84
2022/03/18 01:27:23;;;;;;;0.35;0.10;;;;;;;;;;5055940;28;19909;-81
2022/03/18 01:29:49;;;;;;;0.13;0.13;;;;;;;;;;5056290;28;20037;-84
2022/03/18 01:32:26;;;;;;;0.40;0.40;;;;;;;;;;5054772;28;20037;-79
2022/03/18 01:34:54;;;;;;;3.20;0.85;;;;;;;;;;5048355;28;20357;-83
2022/03/18 01:37:19;;;;;;;0.10;0.10;;;;;;;;;;5050915;28;20017;-84
2022/03/18 01:39:44;;;;;;;0.90;0.90;;;;;;;;;;5059967;28;20031;-82
2022/03/18 01:42:10;;;;;;;0.20;0.20;;;;;;;;;;5056169;28;20085;-83
2022/03/18 01:44:41;;;;;;;0.05;0.05;;;;;;;;;;5055954;28;20041;-82
2022/03/18 01:47:10;;;;;;;0.38;0.38;;;;;;;;;;5054866;28;20088;-82
2022/03/18 01:49:38;;;;;;;1.98;0.85;;;;;;;;;;5056113;28;20404;-85
2022/03/18 01:52:08;;;;;;;0.10;0.10;;;;;;;;;;5055430;28;20326;-84
2022/03/18 01:54:50;;;;;;;0.35;0.35;;;;;;;;;;5055081;28;20020;-84
2022/03/18 01:57:22;;;;;;;0.63;0.52;;;;;;;;;;5054582;28;20330;-83
2022/03/18 01:59:51;;;;;;;0.38;0.38;;;;;;;;;;5054443;28;20086;-87
2022/03/18 02:02:17;;;;;;;0.63;0.40;;;;;;;;;;5055373;28;20021;-85
2022/03/18 02:04:50;;;;;;;1.60;1.50;;;;;;;;;;5038723;28;20128;-85
2022/03/18 02:07:17;;;;;;;0.52;0.52;;;;;;;;;;5055057;28;20032;-85
2022/03/18 02:09:43;;;;;;;0.20;0.20;;;;;;;;;;5038824;28;20086;-84
2022/03/18 02:12:12;;;;;;;1.38;1.27;;;;;;;;;;5053313;28;20030;-83
2022/03/18 02:14:49;;;;;;;0.20;0.20;;;;;;;;;;5054847;28;20055;-84
2022/03/18 02:17:16;;;;;;;0.47;0.47;;;;;;;;;;5048226;28;20469;-84
2022/03/18 02:19:46;;;;;;;0.47;0.47;;;;;;;;;;5054257;28;20024;-80
2022/03/18 02:22:40;;;;;;;0.20;0.20;;;;;;;;;;5054070;28;20024;-83
2022/03/18 02:25:12;;;;;;;0.13;0.13;;;;;;;;;;5048372;28;20068;-84
2022/03/18 02:27:55;;;;;;;0.43;0.43;;;;;;;;;;5054817;28;20028;-85
2022/03/18 02:30:53;;;;;;;0.90;0.90;;;;;;;;;;5054037;28;20035;-85
2022/03/18 02:33:21;;;;;;;1.55;1.33;;;;;;;;;;5054087;28;20025;-83
2022/03/18 02:35:53;;;;;;;1.70;1.05;;;;;;;;;;5054092;28;20020;-84
2022/03/18 02:38:23;;;;;;;0.15;0.15;;;;;;;;;;5054439;28;20040;-83
2022/03/18 02:40:51;;;;;;;0.10;0.10;;;;;;;;;;5053271;28;20036;-82
2022/03/18 02:43:18;;;;;;;0.10;0.10;;;;;;;;;;5054558;28;20024;-84
2022/03/18 02:45:46;;;;;;;0.10;0.10;;;;;;;;;;5053595;28;20052;-84
2022/03/18 02:48:11;;;;;;;0.38;0.38;;;;;;;;;;5054640;28;20032;-85
2022/03/18 02:50:37;;;;;;;0.55;0.55;;;;;;;;;;5054721;28;20029;-84
2022/03/18 02:53:05;;;;;;;0.10;0.10;;;;;;;;;;5053471;28;20028;-84
2022/03/18 02:55:34;;;;;;;0.15;0.15;;;;;;;;;;5054456;28;20470;-85
2022/03/18 02:58:05;;;;;;;2.92;0.47;;;;;;;;;;5053929;28;20668;-84
2022/03/18 03:00:30;;;;;;;0.00;0.00;;;;;;;;;;5054384;28;20447;-80
2022/03/18 03:02:58;;;;;;;0.20;0.20;;;;;;;;;;5054426;28;20091;-80
2022/03/18 03:08:08;;;;;;;0.82;0.82;;;;;;;;;;5054420;28;20110;-83
2022/03/18 03:10:37;;;;;;;0.57;0.52;;;;;;;;;;5052895;28;20044;-84
2022/03/18 03:13:10;;;;;;;1.90;1.70;;;;;;;;;;5054518;28;20422;-83
2022/03/18 03:15:36;;;;;;;0.38;0.38;;;;;;;;;;5054877;28;20033;-85
2022/03/18 03:18:06;;;;;;;0.28;0.15;;;;;;;;;;5054626;28;20361;-85
2022/03/18 03:20:32;;;;;;;0.00;0.00;;;;;;;;;;5054512;28;20083;-87
2022/03/18 03:23:01;;;;;;;0.20;0.20;;;;;;;;;;5054012;28;20354;-82
2022/03/18 03:25:28;;;;;;;0.00;0.00;;;;;;;;;;5057052;28;20339;-82
2022/03/18 03:27:56;;;;;;;0.00;0.00;;;;;;;;;;5056696;28;20032;-83
2022/03/18 03:30:22;;;;;;;0.00;0.00;;;;;;;;;;5056685;28;20032;-82
2022/03/18 03:32:49;;;;;;;0.00;0.00;;;;;;;;;;5057501;28;20031;-83
2022/03/18 03:35:15;;;;;;;0.00;0.00;;;;;;;;;;5060186;28;20028;-84
2022/03/18 03:37:41;;;;;;;0.88;0.60;;;;;;;;;;5056246;28;20107;-84
2022/03/18 03:40:07;;;;;;;0.10;0.10;;;;;;;;;;5057791;28;20411;-83
2022/03/18 03:42:36;;;;;;;0.15;0.15;;;;;;;;;;5057419;28;20044;-82
2022/03/18 03:45:09;;;;;;;0.20;0.20;;;;;;;;;;5057791;28;20348;-84
2022/03/18 03:47:39;;;;;;;0.63;0.63;;;;;;;;;;5056616;28;20036;-84
2022/03/18 03:50:05;;;;;;;0.10;0.10;;;;;;;;;;5056476;28;20035;-83
2022/03/18 03:52:34;;;;;;;0.10;0.10;;;;;;;;;;5056538;28;20024;-83
2022/03/18 03:55:03;;;;;;;0.43;0.43;;;;;;;;;;5056526;28;20031;-85
2022/03/18 03:57:31;;;;;;;0.82;0.50;;;;;;;;;;5056837;28;20052;-83
2022/03/18 03:59:59;;;;;;;0.30;0.30;;;;;;;;;;5057677;28;20017;-86
2022/03/18 04:02:27;;;;;;;0.15;0.15;;;;;;;;;;5057779;28;20021;-84
2022/03/18 04:04:52;;;;;;;0.30;0.30;;;;;;;;;;5059742;28;20021;-85
2022/03/18 04:07:20;;;;;;;0.10;0.10;;;;;;;;;;5052081;28;20036;-83
2022/03/18 04:09:53;;;;;;;0.00;0.00;;;;;;;;;;5057378;28;20104;-85
2022/03/18 04:12:23;;;;;;;0.00;0.00;;;;;;;;;;5057262;28;20048;-85
2022/03/18 04:14:48;;;;;;;0.32;0.32;;;;;;;;;;5046844;28;20025;-85
2022/03/18 04:17:18;;;;;;;0.13;0.13;;;;;;;;;;5055029;28;20025;-84
2022/03/18 04:19:46;;;;;;;0.43;0.30;;;;;;;;;;5053628;28;20028;-84
2022/03/18 04:22:13;;;;;;;0.35;0.35;;;;;;;;;;5052537;28;20018;-84
2022/03/18 04:24:39;;;;;;;1.80;1.45;;;;;;;;;;5052889;28;20064;-81
2022/03/18 04:27:07;;;;;;;2.35;1.23;;;;;;;;;;5056641;28;20331;-84
2022/03/18 04:29:32;;;;;;;0.25;0.25;;;;;;;;;;5054231;28;20055;-84
2022/03/18 04:32:01;;;;;;;0.00;0.00;;;;;;;;;;5054671;28;20069;-83
2022/03/18 04:34:28;;;;;;;0.10;0.10;;;;;;;;;;5055270;28;20032;-83
2022/03/18 04:36:54;;;;;;;1.13;0.60;;;;;;;;;;5062550;28;20396;-83
2022/03/18 04:39:21;;;;;;;0.65;0.65;;;;;;;;;;5055996;28;20306;-83
2022/03/18 04:41:47;;;;;;;1.10;1.10;;;;;;;;;;5054746;28;20033;-82
2022/03/18 04:44:17;;;;;;;0.10;0.10;;;;;;;;;;5055614;28;20388;-83
2022/03/18 04:46:47;;;;;;;0.17;0.17;;;;;;;;;;5058367;28;20028;-82
2022/03/18 04:49:17;;;;;;;1.35;1.20;;;;;;;;;;5054798;28;20021;-83
2022/03/18 04:51:43;;;;;;;0.25;0.25;;;;;;;;;;5055457;28;20025;-84
2022/03/18 04:54:08;;;;;;;6.72;1.38;;;;;;;;;;5051351;28;20468;-83
2022/03/18 04:59:24;;;;;;;0.22;0.22;;;;;;;;;;5055321;28;20417;-84
2022/03/18 05:01:52;;;;;;;0.25;0.25;;;;;;;;;;5052996;28;20155;-81
2022/03/18 05:04:17;;;;;;;0.55;0.55;;;;;;;;;;5054891;28;20023;-83
2022/03/18 05:06:43;;;;;;;0.20;0.20;;;;;;;;;;5055638;28;20107;-84
2022/03/18 05:09:11;;;;;;;0.10;0.10;;;;;;;;;;5053269;28;20043;-84
2022/03/18 05:11:38;;;;;;;0.28;0.28;;;;;;;;;;5055673;28;20099;-83
2022/03/18 05:14:06;;;;;;;0.17;0.17;;;;;;;;;;5054893;28;20040;-83
2022/03/18 05:16:36;;;;;;;0.22;0.22;;;;;;;;;;5055452;28;20025;-84
2022/03/18 05:19:06;;;;;;;2.40;2.20;;;;;;;;;;5054656;28;20057;-84
2022/03/18 05:21:34;;;;;;;0.52;0.52;;;;;;;;;;5034638;28;20116;-81
2022/03/18 05:23:59;;;;;;;0.40;0.40;;;;;;;;;;5055374;28;20492;-83
2022/03/18 05:26:25;;;;;;;0.30;0.30;;;;;;;;;;5055660;28;20036;-82
2022/03/18 05:28:52;;;;;;;0.28;0.28;;;;;;;;;;5054862;28;20341;-84
2022/03/18 05:31:20;;;;;;;0.57;0.57;;;;;;;;;;5052851;28;20408;-84
2022/03/18 05:33:48;;;;;;;0.25;0.25;;;;;;;;;;5054380;28;20108;-81
2022/03/18 05:36:14;;;;;;;0.13;0.13;;;;;;;;;;5060581;28;20435;-84
2022/03/18 05:38:41;;;;;;;0.50;0.50;;;;;;;;;;5055146;28;20025;-83
2022/03/18 05:41:11;;;;;;;0.70;0.70;;;;;;;;;;5050372;28;20025;-84
2022/03/18 05:43:39;;;;;;;0.00;0.00;;;;;;;;;;5055352;28;20393;-82
2022/03/18 05:46:10;;;;;;;0.40;0.40;;;;;;;;;;5049741;28;20466;-82
2022/03/18 05:48:39;;;;;;;0.20;0.20;;;;;;;;;;5054264;28;20044;-81
2022/03/18 05:51:05;;;;;;;0.30;0.15;;;;;;;;;;5050678;28;20525;-83
2022/03/18 05:53:30;;;;;;;0.15;0.15;;;;;;;;;;5055171;28;20147;-83
2022/03/18 05:58:43;;;;;;;0.17;0.17;;;;;;;;;;5054659;28;20039;-83
2022/03/18 06:01:10;;;;;;;0.50;0.50;;;;;;;;;;5053289;28;20033;-82
2022/03/18 06:03:36;;;;;;;1.20;0.85;;;;;;;;;;5054120;28;20044;-84
2022/03/18 06:06:05;;;;;;;0.13;0.13;;;;;;;;;;5053737;28;20114;-84
2022/03/18 06:13:58;;;;;;;4.07;1.65;;;;;;;;;;5054308;28;20048;-84
2022/03/18 06:16:26;;;;;;;0.20;0.20;;;;;;;;;;5053674;28;20025;-83
2022/03/18 06:18:54;;;;;;;0.10;0.10;;;;;;;;;;5054346;28;20057;-82
2022/03/18 06:21:22;;;;;;;0.10;0.10;;;;;;;;;;5053914;28;20060;-83
2022/03/18 06:23:48;;;;;;;0.20;0.20;;;;;;;;;;5054858;28;20411;-85
2022/03/18 06:26:18;;;;;;;0.32;0.32;;;;;;;;;;5047434;28;20040;-84
2022/03/18 06:28:49;;;;;;;0.45;0.45;;;;;;;;;;5053951;28;20108;-84
2022/03/18 06:31:14;;;;;;;0.35;0.35;;;;;;;;;;5051174;28;20426;-83
2022/03/18 06:33:43;;;;;;;0.00;0.00;;;;;;;;;;5054192;28;20027;-84
2022/03/18 06:36:11;;;;;;;0.10;0.10;;;;;;;;;;5052780;28;20025;-83
2022/03/18 06:38:40;;;;;;;0.35;0.35;;;;;;;;;;5054877;28;20094;-83
2022/03/18 06:41:06;;;;;;;1.55;1.13;;;;;;;;;;5053853;28;20025;-83
2022/03/18 06:43:36;;;;;;;0.22;0.22;;;;;;;;;;5052464;28;20954;-83
2022/03/18 06:46:02;;;;;;;0.75;0.75;;;;;;;;;;5050606;28;20048;-82
2022/03/18 06:48:27;;;;;;;0.50;0.50;;;;;;;;;;5053228;28;20095;-83
2022/03/18 06:50:53;;;;;;;1.85;1.02;;;;;;;;;;5053006;28;20493;-83
2022/03/18 06:53:21;;;;;;;0.30;0.30;;;;;;;;;;5053689;28;20094;-81
2022/03/18 06:55:48;;;;;;;0.30;0.30;;;;;;;;;;5051025;28;20025;-84
2022/03/18 06:58:16;;;;;;;3.30;1.55;;;;;;;;;;5053706;28;20036;-82
2022/03/18 07:00:41;;;;;;;0.77;0.77;;;;;;;;;;5052083;28;20040;-83
2022/03/18 07:03:06;;;;;;;1.05;1.02;;;;;;;;;;5054072;28;20021;-83
2022/03/18 07:05:32;;;;;;;0.20;0.20;;;;;;;;;;5053120;28;20033;-83
2022/03/18 07:07:58;;;;;;;0.05;0.05;;;;;;;;;;5053488;28;20048;-84
2022/03/18 07:10:26;;;;;;;3.75;1.55;;;;;;;;;;5048223;28;20036;-84
2022/03/18 07:12:51;;;;;;;0.30;0.30;;;;;;;;;;5032731;28;20026;-82
2022/03/18 07:15:21;;;;;;;0.20;0.20;;;;;;;;;;5045768;28;20159;-84
2022/03/18 07:17:58;;;;;;;0.30;0.30;;;;;;;;;;5047794;28;20034;-83
2022/03/18 07:20:26;;;;;;;0.40;0.40;;;;;;;;;;5052493;28;20025;-82
2022/03/18 07:23:08;;;;;;;0.28;0.28;;;;;;;;;;5053722;28;20029;-82
2022/03/18 07:25:39;;;;;;;1.00;0.43;;;;;;;;;;5053777;28;20079;-81
2022/03/18 07:28:07;;;;;;;0.38;0.38;;;;;;;;;;5050156;28;20021;-82
2022/03/18 07:30:32;;;;;;;1.35;1.25;;;;;;;;;;5048127;28;20036;-84
2022/03/18 07:32:58;;;;;;;0.10;0.10;;;;;;;;;;5052186;28;20017;-80
2022/03/18 07:35:24;;;;;;;0.85;0.65;;;;;;;;;;5054719;28;20442;-83
2022/03/18 07:37:52;;;;;;;3.95;1.65;;;;;;;;;;5049776;28;20083;-81
2022/03/18 07:40:21;;;;;;;1.35;0.95;;;;;;;;;;5052788;28;20388;-83
2022/03/18 07:42:48;;;;;;;20.45;0.70;;;;;;;;;;5042240;28;20029;-82
2022/03/18 07:45:22;;;;;;;1.60;1.50;;;;;;;;;;5051522;28;20033;-83
2022/03/18 07:47:51;;;;;;;0.85;0.85;;;;;;;;;;5053077;28;20035;-81
2022/03/18 07:50:20;;;;;;;0.43;0.43;;;;;;;;;;5052857;28;20028;-83
2022/03/18 07:52:52;;;;;;;0.50;0.50;;;;;;;;;;5051533;28;20052;-82
2022/03/18 07:55:21;;;;;;;0.88;0.60;;;;;;;;;;5034717;28;20458;-83
2022/03/18 07:57:46;;;;;;;0.80;0.80;;;;;;;;;;5053871;28;20025;-83
2022/03/18 08:00:13;;;;;;;0.65;0.65;;;;;;;;;;5051118;28;20032;-81
2022/03/18 08:02:40;;;;;;;0.45;0.45;;;;;;;;;;5051506;28;20417;-80
2022/03/18 08:05:06;;;;;;;0.30;0.30;;;;;;;;;;5052512;28;20442;-82
2022/03/18 08:07:33;;;;;;;1.27;1.17;;;;;;;;;;5047593;28;20040;-82
2022/03/18 08:10:01;;;;;;;2.78;1.88;;;;;;;;;;5048675;28;20029;-83
2022/03/18 08:12:29;;;;;;;0.50;0.47;;;;;;;;;;5051051;28;20025;-84
2022/03/18 08:15:15;;;;;;;5.55;0.75;;;;;;;;;;5054457;28;20430;-84
2022/03/18 08:17:44;;;;;;;1.75;1.52;;;;;;;;;;5068498;28;20051;-84
2022/03/18 08:27:02;;;;;;;2.20;0.63;;;;;;;;;;5065876;28;20067;-83
2022/03/18 08:29:27;;;;;;;0.70;0.70;;;;;;;;;;5054953;28;20033;-82
2022/03/18 08:31:53;;;;;;;12.18;1.40;;;;;;;;;;5052155;28;20082;-82
2022/03/18 08:34:23;;;;;;;5.00;1.05;;;;;;;;;;5050748;28;20070;-83
2022/03/18 08:36:53;;;;;;;1.90;1.50;;;;;;;;;;5055342;28;20593;-83
2022/03/18 08:39:18;;;;;;;1.08;0.98;;;;;;;;;;5049915;28;20032;-82
2022/03/18 08:41:48;;;;;;;1.95;0.40;;;;;;;;;;5058160;28;20021;-84
2022/03/18 08:44:19;;;;;;;1.13;0.77;;;;;;;;;;5069198;28;20029;-80
2022/03/18 08:46:46;;;;;;;1.52;1.33;;;;;;;;;;5053233;28;20029;-85
2022/03/18 08:49:11;;;;;;;1.42;1.27;;;;;;;;;;5057648;28;20465;-83
2022/03/18 08:51:37;;;;;;;0.30;0.30;;;;;;;;;;5038762;28;20017;-84
2022/03/18 08:54:04;;;;;;;2.13;0.80;;;;;;;;;;5067408;28;20025;-85
2022/03/18 08:56:30;;;;;;;0.50;0.50;;;;;;;;;;5056586;28;20029;-83
2022/03/18 08:58:56;;;;;;;0.77;0.47;;;;;;;;;;5056301;28;20028;-83
2022/03/18 09:01:22;;;;;;;0.75;0.75;;;;;;;;;;5053937;28;20135;-84
2022/03/18 09:03:52;;;;;;;4.95;0.30;;;;;;;;;;5055768;28;20029;-85
2022/03/18 09:06:20;;;;;;;1.23;1.13;;;;;;;;;;5057279;28;20025;-85
2022/03/18 09:08:45;;;;;;;0.68;0.68;;;;;;;;;;5054919;28;20044;-84
2022/03/18 09:11:11;;;;;;;0.90;0.65;;;;;;;;;;5055304;28;20021;-85
2022/03/18 09:13:37;;;;;;;0.70;0.70;;;;;;;;;;5052348;28;20017;-83
2022/03/18 09:16:05;;;;;;;2.60;0.70;;;;;;;;;;5049536;28;20335;-85
2022/03/18 09:18:31;;;;;;;0.30;0.30;;;;;;;;;;5054207;28;20154;-85
2022/03/18 09:20:56;;;;;;;12.50;1.75;;;;;;;;;;5053004;28;20108;-83
2022/03/18 09:23:26;;;;;;;0.30;0.30;;;;;;;;;;5055358;28;20029;-85
2022/03/18 09:25:54;;;;;;;1.38;0.77;;;;;;;;;;5055360;28;20025;-84
2022/03/18 09:28:20;;;;;;;1.05;0.68;;;;;;;;;;5055454;28;20017;-84
2022/03/18 09:30:48;;;;;;;0.38;0.30;;;;;;;;;;5051697;28;20094;-84
2022/03/18 09:33:15;;;;;;;1.27;0.75;;;;;;;;;;5056315;28;20028;-85
2022/03/18 09:35:43;;;;;;;0.57;0.52;;;;;;;;;;5053027;28;20048;-84
2022/03/18 09:38:09;;;;;;;3.92;1.80;;;;;;;;;;5052622;28;20450;-85
2022/03/18 09:40:37;;;;;;;0.60;0.60;;;;;;;;;;5051234;28;20115;-83
2022/03/18 09:43:07;;;;;;;6.65;0.60;;;;;;;;;;5054375;28;20029;-83
2022/03/18 09:45:37;;;;;;;1.27;0.55;;;;;;;;;;5052580;28;20087;-83
2022/03/18 09:48:06;;;;;;;0.43;0.43;;;;;;;;;;5054958;28;20044;-86
2022/03/18 09:50:31;;;;;;;0.98;0.98;;;;;;;;;;5069822;28;20108;-84
2022/03/18 09:52:57;;;;;;;3.03;1.00;;;;;;;;;;5053459;28;20063;-85
2022/03/18 09:55:22;;;;;;;0.30;0.17;;;;;;;;;;5048541;28;20045;-84
2022/03/18 09:57:47;;;;;;;0.10;0.10;;;;;;;;;;5045524;28;20020;-85
2022/03/18 10:00:14;;;;;;;4.47;0.95;;;;;;;;;;5031342;28;20433;-86
2022/03/18 10:02:42;;;;;;;1.02;0.93;;;;;;;;;;5052365;28;20025;-83
2022/03/18 10:05:16;;;;;;;0.85;0.82;;;;;;;;;;5052638;28;20215;-83
2022/03/18 10:07:58;;;;;;;0.52;0.52;;;;;;;;;;5054837;28;20036;-84
2022/03/18 10:10:28;;;;;;;0.20;0.20;;;;;;;;;;5049747;28;20031;-84
2022/03/18 10:12:56;;;;;;;0.20;0.20;;;;;;;;;;5053950;28;20448;-85
2022/03/18 10:15:30;;;;;;;0.77;0.63;;;;;;;;;;5054646;28;20029;-82
2022/03/18 10:17:57;;;;;;;2.13;1.45;;;;;;;;;;5052369;28;20469;-82
2022/03/18 10:20:30;;;;;;;0.68;0.63;;;;;;;;;;5052440;28;20120;-73
2022/03/18 10:23:15;;;;;;;0.28;0.28;;;;;;;;;;5053141;28;20366;-72
2022/03/18 10:25:55;;;;;;;2.20;0.90;;;;;;;;;;5049261;28;20048;-73
2022/03/18 10:28:36;;;;;;;1.08;0.63;;;;;;;;;;5049720;28;20037;-73
2022/03/18 10:37:50;;;;;;;0.68;0.68;;;;;;;;;;4966138;28;20133;-73
2022/03/18 10:40:19;;;;;;;0.22;0.22;;;;;;;;;;4972991;28;20502;-74
2022/03/18 10:42:57;;;;;;;0.35;0.35;;;;;;;;;;4958420;28;20037;-73
2022/03/18 10:45:23;;;;;;;3.03;1.20;;;;;;;;;;4953947;28;20339;-74
2022/03/18 10:47:49;;;;;;;0.85;0.57;;;;;;;;;;4974001;28;20128;-77
2022/03/18 10:50:26;;;;;;;1.33;0.40;;;;;;;;;;4958027;28;20066;-74
2022/03/18 10:53:02;;;;;;;1.23;0.75;;;;;;;;;;4972920;28;20073;-73
2022/03/18 10:55:30;;;;;;;2.63;0.40;;;;;;;;;;4952405;28;20023;-73
2022/03/18 10:58:03;;;;;;;0.30;0.30;;;;;;;;;;4956916;28;20043;-75
2022/03/18 11:00:33;;;;;;;2.30;1.55;;;;;;;;;;4969543;28;20047;-76
2022/03/18 11:03:02;;;;;;;2.88;0.85;;;;;;;;;;4972433;28;20058;-74
2022/03/18 11:05:39;;;;;;;0.52;0.43;;;;;;;;;;4973736;28;20460;-74
2022/03/18 11:08:13;;;;;;;0.95;0.43;;;;;;;;;;4956793;28;20058;-74
2022/03/18 11:13:28;;;;;;;2.88;0.98;;;;;;;;;;5052074;28;20090;-74
2022/03/18 11:15:54;;;;;;;0.25;0.25;;;;;;;;;;5036135;28;20032;-74
2022/03/18 11:18:19;;;;;;;1.75;1.08;;;;;;;;;;5035624;28;20031;-75
2022/03/18 11:20:51;;;;;;;9.13;0.95;;;;;;;;;;5052739;28;20527;-74
2022/03/18 11:23:22;;;;;;;0.93;0.88;;;;;;;;;;5047621;28;20025;-74
2022/03/18 11:25:54;;;;;;;0.30;0.25;;;;;;;;;;5053535;28;20071;-74
2022/03/18 11:28:20;;;;;;;;;;;;;;;;;;5054060;28;20073;-72
2022/03/18 11:30:47;;;;;;;6.70;1.25;;;;;;;;;;5051411;28;19912;-74
2022/03/18 11:33:15;;;;;;;0.75;0.63;;;;;;;;;;5053271;28;20461;-73
2022/03/18 11:35:49;;;;;;;0.70;0.60;;;;;;;;;;5053825;28;20052;-74
2022/03/18 11:38:15;;;;;;;2.08;1.40;;;;;;;;;;5053049;28;20035;-75
2022/03/18 11:43:55;;;;;;;1.23;0.57;;;;;;;;;;5051573;28;20044;-75
2022/03/18 11:46:25;;;;;;;0.52;0.50;;;;;;;;;;5055388;28;20025;-75
2022/03/18 11:48:57;;;;;;;0.50;0.45;;;;;;;;;;5061835;28;20033;-76
2022/03/18 11:51:31;;;;;;;1.25;0.75;;;;;;;;;;5056660;28;20029;-76
2022/03/18 11:54:12;;;;;;;0.57;0.57;;;;;;;;;;5057358;28;20025;-76
2022/03/18 11:56:52;;;;;;;0.40;0.40;;;;;;;;;;5056955;28;20151;-75
2022/03/18 11:59:31;;;;;;;2.00;0.70;;;;;;;;;;5050245;28;20422;-76
2022/03/18 12:01:59;;;;;;;1.02;0.93;;;;;;;;;;5056707;28;20025;-75
2022/03/18 12:04:33;;;;;;;0.30;0.30;;;;;;;;;;5056700;28;20063;-76
2022/03/18 12:07:11;;;;;;;1.02;0.90;;;;;;;;;;5059802;28;20025;-75
2022/03/18 12:10:02;;;;;;;0.75;0.57;;;;;;;;;;5057270;28;20315;-75
2022/03/18 12:12:32;;;;;;;2.38;0.52;;;;;;;;;;5055204;28;20025;-76
2022/03/18 12:15:04;;;;;;;1.65;0.75;;;;;;;;;;5056474;28;20028;-75
2022/03/18 12:17:30;;;;;;;0.98;0.98;;;;;;;;;;5056882;28;20469;-76
2022/03/18 12:20:02;;;;;;;1.65;1.08;;;;;;;;;;5050136;28;20098;-75
2022/03/18 12:22:30;;;;;;;0.30;0.30;;;;;;;;;;5059385;28;20051;-73
2022/03/18 12:24:57;;;;;;;0.85;0.63;;;;;;;;;;5056672;28;20037;-73
2022/03/18 12:27:28;;;;;;;0.90;0.70;;;;;;;;;;5041787;28;20452;-74
2022/03/18 12:30:00;;;;;;;1.23;0.75;;;;;;;;;;5055467;28;20032;-71
2022/03/18 12:32:28;;;;;;;0.82;0.57;;;;;;;;;;5055621;28;20421;-72
2022/03/18 12:34:54;;;;;;;0.68;0.68;;;;;;;;;;5058641;28;20025;-71
2022/03/18 12:37:27;;;;;;;0.20;0.20;;;;;;;;;;5041596;28;20025;-71
2022/03/18 12:40:12;;;;;;;2.78;1.13;;;;;;;;;;5056205;28;20032;-71
2022/03/18 12:42:54;;;;;;;0.82;0.80;;;;;;;;;;5055993;28;20090;-73
2022/03/18 12:45:34;;;;;;;1.50;1.05;;;;;;;;;;5048479;28;20063;-71
2022/03/18 12:48:02;;;;;;;1.00;0.95;;;;;;;;;;5053303;28;20108;-71
2022/03/18 12:50:33;;;;;;;0.63;0.40;;;;;;;;;;5051431;28;20032;-71
2022/03/18 12:52:59;;;;;;;2.55;0.73;;;;;;;;;;5055346;28;20057;-72
2022/03/18 12:55:27;;;;;;;1.40;0.80;;;;;;;;;;5053739;28;20108;-70
2022/03/18 12:57:55;;;;;;;2.53;1.00;;;;;;;;;;5054264;28;20078;-70
2022/03/18 13:00:24;;;;;;;0.50;0.50;;;;;;;;;;5038573;28;20028;-70
2022/03/18 13:02:52;;;;;;;0.25;0.22;;;;;;;;;;5055869;28;20121;-70
2022/03/18 13:05:19;;;;;;;0.30;0.30;;;;;;;;;;5056580;28;20021;-70
2022/03/18 13:07:48;;;;;;;0.38;0.22;;;;;;;;;;5055138;28;20043;-71
2022/03/18 13:10:14;;;;;;;0.30;0.30;;;;;;;;;;5055436;28;20025;-71
2022/03/18 13:12:39;;;;;;;2.08;0.73;;;;;;;;;;5055747;28;20027;-70
2022/03/18 13:15:19;;;;;;;17.48;0.90;;;;;;;;;;5055567;28;20090;-70
2022/03/18 13:17:49;;;;;;;0.20;0.20;;;;;;;;;;5055988;28;20024;-70
2022/03/18 13:20:28;;;;;;;0.20;0.20;;;;;;;;;;5054740;28;20028;-71
2022/03/18 13:22:55;;;;;;;0.15;0.15;;;;;;;;;;5054461;28;20033;-70
2022/03/18 13:25:24;;;;;;;0.55;0.55;;;;;;;;;;5054294;28;20043;-70
2022/03/18 13:27:50;;;;;;;0.40;0.40;;;;;;;;;;5055413;28;20238;-70
2022/03/18 13:33:09;;;;;;;1.00;0.82;;;;;;;;;;5055524;28;20087;-70
2022/03/18 13:35:46;;;;;;;1.27;0.95;;;;;;;;;;5057496;28;20024;-70
2022/03/18 13:38:17;;;;;;;0.25;0.25;;;;;;;;;;5054919;28;20060;-70
2022/03/18 13:41:03;;;;;;;0.68;0.50;;;;;;;;;;5054500;28;20025;-71
2022/03/18 13:43:28;;;;;;;0.35;0.35;;;;;;;;;;5054539;28;20033;-70
2022/03/18 13:46:10;;;;;;;0.43;0.43;;;;;;;;;;5054137;28;20039;-70
2022/03/18 13:48:38;;;;;;;0.98;0.82;;;;;;;;;;5054208;28;20375;-70
2022/03/18 13:51:06;;;;;;;0.73;0.52;;;;;;;;;;5053776;28;20079;-70
2022/03/18 13:53:32;;;;;;;0.65;0.43;;;;;;;;;;5053853;28;20021;-70
2022/03/18 13:56:00;;;;;;;0.32;0.32;;;;;;;;;;5037553;28;20016;-72
2022/03/18 13:58:28;;;;;;;0.88;0.80;;;;;;;;;;5054660;28;20033;-70
2022/03/18 14:00:53;;;;;;;0.10;0.10;;;;;;;;;;5053828;28;20115;-70
2022/03/18 14:03:29;;;;;;;0.93;0.77;;;;;;;;;;5053869;28;20112;-70
2022/03/18 14:06:03;;;;;;;0.55;0.30;;;;;;;;;;5060036;28;20025;-72
2022/03/18 14:08:39;;;;;;;0.57;0.57;;;;;;;;;;5052906;28;20159;-72
2022/03/18 14:12:08;;;;;;;1.90;1.00;;;;;;;;;;5048007;28;20098;-71
2022/03/18 14:13:52;;;;;;;1.50;0.22;;;;;;;;;;5053413;28;20032;-72
2022/03/18 14:16:17;;;;;;;1.17;0.65;;;;;;;;;;5054725;28;20103;-71
2022/03/18 14:18:43;;;;;;;2.33;1.50;;;;;;;;;;5053413;28;20025;-70
2022/03/18 14:21:11;;;;;;;0.20;0.20;;;;;;;;;;5037403;28;20402;-71
2022/03/18 14:23:44;;;;;;;0.85;0.75;;;;;;;;;;5053518;28;20032;-71
2022/03/18 14:26:12;;;;;;;0.85;0.45;;;;;;;;;;5054383;28;20112;-73
2022/03/18 14:28:39;;;;;;;0.55;0.40;;;;;;;;;;5054374;28;20107;-70
2022/03/18 14:31:07;;;;;;;3.78;1.40;;;;;;;;;;5053646;28;20393;-71
2022/03/18 14:33:37;;;;;;;0.40;0.40;;;;;;;;;;5034412;28;20052;-72
2022/03/18 14:36:04;;;;;;;1.42;1.17;;;;;;;;;;5051823;28;20033;-70
2022/03/18 14:38:29;;;;;;;2.08;0.45;;;;;;;;;;5052747;28;20049;-71
2022/03/18 14:41:01;;;;;;;0.10;0.10;;;;;;;;;;5054073;28;20430;-70
2022/03/18 14:43:27;;;;;;;13.27;0.88;;;;;;;;;;5051967;28;20020;-71
2022/03/18 14:45:52;;;;;;;0.75;0.75;;;;;;;;;;5038180;28;20033;-70
2022/03/18 14:48:18;;;;;;;0.40;0.22;;;;;;;;;;5056406;28;20025;-71
2022/03/18 14:50:44;;;;;;;0.32;0.32;;;;;;;;;;5053126;28;20037;-70
2022/03/18 14:53:16;;;;;;;2.72;1.38;;;;;;;;;;5052748;28;20465;-71
2022/03/18 14:58:28;;;;;;;0.85;0.77;;;;;;;;;;5053969;28;20469;-70
2022/03/18 15:00:55;;;;;;;0.38;0.38;;;;;;;;;;5052850;28;20037;-70
2022/03/18 15:03:23;;;;;;;0.52;0.52;;;;;;;;;;5046803;28;20025;-71
2022/03/18 15:05:48;;;;;;;1.17;1.08;;;;;;;;;;5039864;28;20032;-71
2022/03/18 15:08:18;;;;;;;0.98;0.70;;;;;;;;;;5054090;28;20025;-71
2022/03/18 15:10:47;;;;;;;0.95;0.95;;;;;;;;;;5053832;28;20074;-71
2022/03/18 15:13:14;;;;;;;5.10;1.23;;;;;;;;;;5047449;28;20024;-72
2022/03/18 15:15:42;;;;;;;0.30;0.30;;;;;;;;;;5047493;28;20025;-72
2022/03/18 15:18:07;;;;;;;2.20;1.45;;;;;;;;;;5052991;28;20442;-72
2022/03/18 15:20:33;;;;;;;0.25;0.25;;;;;;;;;;5054827;28;20070;-71
2022/03/18 15:23:00;;;;;;;0.55;0.50;;;;;;;;;;5057670;28;20057;-73
2022/03/18 15:25:26;;;;;;;4.65;1.00;;;;;;;;;;5057001;28;20112;-71
2022/03/18 15:27:56;;;;;;;0.40;0.40;;;;;;;;;;5058003;28;20028;-71
2022/03/18 15:30:21;;;;;;;0.43;0.43;;;;;;;;;;5057836;28;20048;-72
2022/03/18 15:32:46;;;;;;;0.57;0.57;;;;;;;;;;5057842;28;20052;-72
2022/03/18 15:35:12;;;;;;;0.08;0.08;;;;;;;;;;5061187;28;20456;-72
2022/03/18 15:37:37;;;;;;;0.55;0.55;;;;;;;;;;5058368;28;20468;-72